This demonstration page uses our WeatherBlox Daily Observations layout. Learn more.

Left ArrowRight Arrow

34.74481, -87.66753

Hourly Observations for June 25, 2020

Temp ( °F °C ) Dew Point ( °F °C ) Humidity (%) Winds ( mph kmh ) Pressure ( in mb ) Visibility ( mi km ) Precip ( " mm )
12:53 am 00:53 Cloudy N/A N/A N/A S 3 6 N/A 10 16 0.00 0.00
1:25 am 01:25 Partly Cloudy N/A N/A N/A SSE 3 6 N/A 10 16 0.00 0.00
1:53 am 01:53 Clear N/A N/A N/A SE 3 6 N/A 10 16 0.00 0.00
2:50 am 02:50 Mostly Cloudy N/A N/A N/A Calm N/A 10 16 0.00 0.00
2:53 am 02:53 Mostly Cloudy N/A N/A N/A Calm N/A 10 16 0.00 0.00
3:04 am 03:04 Cloudy N/A N/A N/A Calm N/A 10 16 0.00 0.00
3:41 am 03:41 Cloudy N/A N/A N/A Calm N/A 10 16 0.00 0.00
3:53 am 03:53 Cloudy N/A N/A N/A Calm N/A 10 16 0.00 0.00
4:53 am 04:53 Cloudy N/A N/A N/A Calm N/A 10 16 0.00 0.00
5:50 am 05:50 Cloudy N/A N/A N/A SW 8 13 N/A 9 14 0.00 0.00
5:53 am 05:53 Cloudy N/A N/A N/A SW 8 13 N/A 8 13 0.00 0.00
6:00 am 06:00 Cloudy N/A N/A N/A SW 7 11 N/A 7 11 0.00 0.00
6:26 am 06:26 Cloudy with Haze N/A N/A N/A SSW 6 9 N/A 5 8 0.00 0.00
6:53 am 06:53 Cloudy N/A N/A N/A SSW 5 7 N/A 10 16 0.00 0.00
7:21 am 07:21 Cloudy N/A N/A N/A S 3 6 N/A 10 16 0.00 0.00
7:32 am 07:32 Cloudy N/A N/A N/A S 3 6 N/A 10 16 0.00 0.00
7:53 am 07:53 Cloudy N/A N/A N/A SSW 3 6 N/A 10 16 0.00 0.00
8:32 am 08:32 Cloudy N/A N/A N/A SSE 3 6 N/A 10 16 0.00 0.00
8:53 am 08:53 Cloudy N/A N/A N/A S 3 6 N/A 10 16 0.00 0.00
9:03 am 09:03 Cloudy N/A N/A N/A SSW 5 7 N/A 10 16 0.00 0.00
9:41 am 09:41 Cloudy N/A N/A N/A Calm N/A 10 16 0.00 0.00
9:53 am 09:53 Cloudy N/A N/A N/A Calm N/A 10 16 0.00 0.00
10:15 am 10:15 Cloudy N/A N/A N/A NNE 3 6 N/A 10 16 0.00 0.00
10:53 am 10:53 Cloudy N/A N/A N/A Calm N/A 10 16 0.00 0.00
11:15 am 11:15 Cloudy N/A N/A N/A NNW 3 6 N/A 10 16 0.00 0.00
11:53 am 11:53 Cloudy N/A N/A N/A Calm N/A 10 16 0.00 0.00
12:22 pm 12:22 Cloudy N/A N/A N/A Calm N/A 10 16 0.00 0.00
12:29 pm 12:29 Mostly Cloudy N/A N/A N/A Calm N/A 10 16 0.00 0.00
12:53 pm 12:53 Partly Cloudy N/A N/A N/A VRB 3 6 N/A 10 16 0.00 0.00
1:53 pm 13:53 Mostly Sunny N/A N/A N/A Calm N/A 10 16 0.00 0.00
2:53 pm 14:53 Mostly Cloudy N/A N/A N/A S 14 22 N/A 10 16 0.00 0.00
3:53 pm 15:53 Sunny N/A N/A N/A VRB 5 7 N/A 10 16 0.00 0.00
4:53 pm 16:53 Partly Cloudy N/A N/A N/A S 3 6 N/A 10 16 0.00 0.00
5:53 pm 17:53 Mostly Cloudy N/A N/A N/A SSW 5 7 N/A 10 16 0.00 0.00
6:53 pm 18:53 Mostly Cloudy N/A N/A N/A S 8 13 N/A 10 16 0.00 0.00
7:53 pm 19:53 Sunny N/A N/A N/A S 3 6 N/A 10 16 0.00 0.00
8:53 pm 20:53 Partly Cloudy N/A N/A N/A SSW 7 11 N/A 10 16 0.00 0.00
9:53 pm 21:53 Clear N/A N/A N/A Calm N/A 10 16 0.00 0.00
10:53 pm 22:53 Mostly Cloudy N/A N/A N/A SSW 12 19 N/A 10 16 0.00 0.00
11:17 pm 23:17 Cloudy N/A N/A N/A SW 13 20 N/A 10 16 0.00 0.00
11:43 pm 23:43 Mostly Cloudy N/A N/A N/A SW 10 17 N/A 10 16 0.00 0.00
11:53 pm 23:53 Partly Cloudy N/A N/A N/A SW 9 15 N/A 10 16 0.00 0.00

Powered by AerisWeather